sensor_id;sensor_type;location;lat;lon;timestamp;P1;P2;P0
80413;PMS5003;69758;52.580;13.068;2024-01-15T00:01:08;23;20;
80413;PMS5003;69758;52.580;13.068;2024-01-15T00:03:34;21;20;
80413;PMS5003;69758;52.580;13.068;2024-01-15T00:05:59;22;22;
80413;PMS5003;69758;52.580;13.068;2024-01-15T00:08:24;17;17;
80413;PMS5003;69758;52.580;13.068;2024-01-15T00:10:50;22;21;
80413;PMS5003;69758;52.580;13.068;2024-01-15T00:13:15;16;16;
80413;PMS5003;69758;52.580;13.068;2024-01-15T00:15:40;18;17;
80413;PMS5003;69758;52.580;13.068;2024-01-15T00:18:06;25;24;
80413;PMS5003;69758;52.580;13.068;2024-01-15T00:20:32;21;20;
80413;PMS5003;69758;52.580;13.068;2024-01-15T00:22:57;21;19;
80413;PMS5003;69758;52.580;13.068;2024-01-15T00:25:22;19;17;
80413;PMS5003;69758;52.580;13.068;2024-01-15T00:27:48;18;18;
80413;PMS5003;69758;52.580;13.068;2024-01-15T00:30:13;17;17;
80413;PMS5003;69758;52.580;13.068;2024-01-15T00:32:39;20;18;
80413;PMS5003;69758;52.580;13.068;2024-01-15T00:35:04;16;13;
80413;PMS5003;69758;52.580;13.068;2024-01-15T00:37:29;18;17;
80413;PMS5003;69758;52.580;13.068;2024-01-15T00:39:55;24;21;
80413;PMS5003;69758;52.580;13.068;2024-01-15T00:42:20;20;18;
80413;PMS5003;69758;52.580;13.068;2024-01-15T00:44:46;20;16;
80413;PMS5003;69758;52.580;13.068;2024-01-15T00:47:11;18;17;
80413;PMS5003;69758;52.580;13.068;2024-01-15T00:49:36;17;15;
80413;PMS5003;69758;52.580;13.068;2024-01-15T00:52:02;16;14;
80413;PMS5003;69758;52.580;13.068;2024-01-15T00:54:28;19;16;
80413;PMS5003;69758;52.580;13.068;2024-01-15T00:56:53;18;18;
80413;PMS5003;69758;52.580;13.068;2024-01-15T00:59:19;15;15;
80413;PMS5003;69758;52.580;13.068;2024-01-15T01:01:44;16;15;
80413;PMS5003;69758;52.580;13.068;2024-01-15T01:04:09;19;19;
80413;PMS5003;69758;52.580;13.068;2024-01-15T01:06:35;15;15;
80413;PMS5003;69758;52.580;13.068;2024-01-15T01:09:00;12;11;
80413;PMS5003;69758;52.580;13.068;2024-01-15T01:11:26;15;14;
80413;PMS5003;69758;52.580;13.068;2024-01-15T01:13:51;21;21;
80413;PMS5003;69758;52.580;13.068;2024-01-15T01:16:16;16;14;
80413;PMS5003;69758;52.580;13.068;2024-01-15T01:18:42;15;14;
80413;PMS5003;69758;52.580;13.068;2024-01-15T01:21:08;15;14;
80413;PMS5003;69758;52.580;13.068;2024-01-15T01:23:33;15;15;
80413;PMS5003;69758;52.580;13.068;2024-01-15T01:25:59;15;15;
80413;PMS5003;69758;52.580;13.068;2024-01-15T01:28:24;16;14;
80413;PMS5003;69758;52.580;13.068;2024-01-15T01:30:50;15;15;
80413;PMS5003;69758;52.580;13.068;2024-01-15T01:33:15;19;15;
80413;PMS5003;69758;52.580;13.068;2024-01-15T01:35:40;15;14;
80413;PMS5003;69758;52.580;13.068;2024-01-15T01:38:06;14;12;
80413;PMS5003;69758;52.580;13.068;2024-01-15T01:40:31;11;11;
80413;PMS5003;69758;52.580;13.068;2024-01-15T01:42:57;17;17;
80413;PMS5003;69758;52.580;13.068;2024-01-15T01:45:22;16;14;
80413;PMS5003;69758;52.580;13.068;2024-01-15T01:47:48;19;19;
80413;PMS5003;69758;52.580;13.068;2024-01-15T01:50:13;14;12;
80413;PMS5003;69758;52.580;13.068;2024-01-15T01:52:39;14;12;
80413;PMS5003;69758;52.580;13.068;2024-01-15T01:55:05;15;12;
80413;PMS5003;69758;52.580;13.068;2024-01-15T01:57:30;12;12;
80413;PMS5003;69758;52.580;13.068;2024-01-15T01:59:56;14;12;
80413;PMS5003;69758;52.580;13.068;2024-01-15T02:02:21;15;14;
80413;PMS5003;69758;52.580;13.068;2024-01-15T02:04:47;11;11;
80413;PMS5003;69758;52.580;13.068;2024-01-15T02:07:12;13;12;
80413;PMS5003;69758;52.580;13.068;2024-01-15T02:09:37;12;12;
80413;PMS5003;69758;52.580;13.068;2024-01-15T02:12:03;16;16;
80413;PMS5003;69758;52.580;13.068;2024-01-15T02:14:28;8;8;
80413;PMS5003;69758;52.580;13.068;2024-01-15T02:16:54;13;12;
80413;PMS5003;69758;52.580;13.068;2024-01-15T02:19:19;11;11;
80413;PMS5003;69758;52.580;13.068;2024-01-15T02:21:45;11;11;
80413;PMS5003;69758;52.580;13.068;2024-01-15T02:24:10;12;11;
80413;PMS5003;69758;52.580;13.068;2024-01-15T02:26:35;11;10;
80413;PMS5003;69758;52.580;13.068;2024-01-15T02:29:01;8;7;
80413;PMS5003;69758;52.580;13.068;2024-01-15T02:31:27;10;8;
80413;PMS5003;69758;52.580;13.068;2024-01-15T02:33:52;10;10;
80413;PMS5003;69758;52.580;13.068;2024-01-15T02:36:18;8;7;
80413;PMS5003;69758;52.580;13.068;2024-01-15T02:38:43;10;10;
80413;PMS5003;69758;52.580;13.068;2024-01-15T02:41:09;12;11;
80413;PMS5003;69758;52.580;13.068;2024-01-15T02:43:35;13;11;
80413;PMS5003;69758;52.580;13.068;2024-01-15T02:46:00;7;7;
80413;PMS5003;69758;52.580;13.068;2024-01-15T02:48:26;15;12;
80413;PMS5003;69758;52.580;13.068;2024-01-15T02:50:51;14;12;
80413;PMS5003;69758;52.580;13.068;2024-01-15T02:53:17;12;10;
80413;PMS5003;69758;52.580;13.068;2024-01-15T02:55:42;8;8;
80413;PMS5003;69758;52.580;13.068;2024-01-15T02:58:07;11;8;
80413;PMS5003;69758;52.580;13.068;2024-01-15T03:00:33;8;8;
80413;PMS5003;69758;52.580;13.068;2024-01-15T03:02:58;10;8;
80413;PMS5003;69758;52.580;13.068;2024-01-15T03:05:24;8;8;
80413;PMS5003;69758;52.580;13.068;2024-01-15T03:07:49;10;8;
80413;PMS5003;69758;52.580;13.068;2024-01-15T03:10:14;8;7;
80413;PMS5003;69758;52.580;13.068;2024-01-15T03:12:40;11;8;
80413;PMS5003;69758;52.580;13.068;2024-01-15T03:15:06;12;12;
80413;PMS5003;69758;52.580;13.068;2024-01-15T03:17:31;10;10;
80413;PMS5003;69758;52.580;13.068;2024-01-15T03:19:56;8;8;
80413;PMS5003;69758;52.580;13.068;2024-01-15T03:22:22;7;7;
80413;PMS5003;69758;52.580;13.068;2024-01-15T03:24:47;10;10;
80413;PMS5003;69758;52.580;13.068;2024-01-15T03:27:13;10;10;
80413;PMS5003;69758;52.580;13.068;2024-01-15T03:29:39;8;8;
80413;PMS5003;69758;52.580;13.068;2024-01-15T03:32:04;12;11;
80413;PMS5003;69758;52.580;13.068;2024-01-15T03:34:30;10;10;
80413;PMS5003;69758;52.580;13.068;2024-01-15T03:36:55;10;10;
80413;PMS5003;69758;52.580;13.068;2024-01-15T03:39:20;7;7;
80413;PMS5003;69758;52.580;13.068;2024-01-15T03:41:46;11;10;
80413;PMS5003;69758;52.580;13.068;2024-01-15T03:44:11;10;8;
80413;PMS5003;69758;52.580;13.068;2024-01-15T03:46:37;14;12;
80413;PMS5003;69758;52.580;13.068;2024-01-15T03:49:02;10;8;
80413;PMS5003;69758;52.580;13.068;2024-01-15T03:51:28;8;8;
80413;PMS5003;69758;52.580;13.068;2024-01-15T03:53:53;7;6;
80413;PMS5003;69758;52.580;13.068;2024-01-15T03:56:19;11;8;
80413;PMS5003;69758;52.580;13.068;2024-01-15T03:58:44;7;7;
80413;PMS5003;69758;52.580;13.068;2024-01-15T04:01:10;10;10;
80413;PMS5003;69758;52.580;13.068;2024-01-15T04:03:35;10;8;
80413;PMS5003;69758;52.580;13.068;2024-01-15T04:06:01;10;10;
80413;PMS5003;69758;52.580;13.068;2024-01-15T04:08:26;6;5;
80413;PMS5003;69758;52.580;13.068;2024-01-15T04:10:52;10;7;
80413;PMS5003;69758;52.580;13.068;2024-01-15T04:13:17;11;10;
80413;PMS5003;69758;52.580;13.068;2024-01-15T04:15:43;7;7;
80413;PMS5003;69758;52.580;13.068;2024-01-15T04:18:09;6;6;
80413;PMS5003;69758;52.580;13.068;2024-01-15T04:20:34;7;7;
80413;PMS5003;69758;52.580;13.068;2024-01-15T04:23:00;10;7;
80413;PMS5003;69758;52.580;13.068;2024-01-15T04:25:25;11;8;
80413;PMS5003;69758;52.580;13.068;2024-01-15T04:27:50;7;6;
80413;PMS5003;69758;52.580;13.068;2024-01-15T04:30:16;5;5;
80413;PMS5003;69758;52.580;13.068;2024-01-15T04:32:41;11;7;
80413;PMS5003;69758;52.580;13.068;2024-01-15T04:35:07;7;5;
80413;PMS5003;69758;52.580;13.068;2024-01-15T04:37:33;7;5;
80413;PMS5003;69758;52.580;13.068;2024-01-15T04:39:58;5;5;
80413;PMS5003;69758;52.580;13.068;2024-01-15T04:42:23;6;5;
80413;PMS5003;69758;52.580;13.068;2024-01-15T04:44:49;6;5;
80413;PMS5003;69758;52.580;13.068;2024-01-15T04:47:14;5;5;
80413;PMS5003;69758;52.580;13.068;2024-01-15T04:49:40;5;3;
80413;PMS5003;69758;52.580;13.068;2024-01-15T04:52:05;6;6;
80413;PMS5003;69758;52.580;13.068;2024-01-15T04:54:31;1;1;
80413;PMS5003;69758;52.580;13.068;2024-01-15T04:56:56;3;3;
80413;PMS5003;69758;52.580;13.068;2024-01-15T04:59:22;5;5;
80413;PMS5003;69758;52.580;13.068;2024-01-15T05:01:48;7;6;
80413;PMS5003;69758;52.580;13.068;2024-01-15T05:04:13;2;2;
80413;PMS5003;69758;52.580;13.068;2024-01-15T05:06:39;5;5;
80413;PMS5003;69758;52.580;13.068;2024-01-15T05:09:04;3;3;
80413;PMS5003;69758;52.580;13.068;2024-01-15T05:11:30;2;2;
80413;PMS5003;69758;52.580;13.068;2024-01-15T05:13:55;3;3;
80413;PMS5003;69758;52.580;13.068;2024-01-15T05:16:20;14;14;
80413;PMS5003;69758;52.580;13.068;2024-01-15T05:18:46;3;3;
80413;PMS5003;69758;52.580;13.068;2024-01-15T05:21:12;2;2;
80413;PMS5003;69758;52.580;13.068;2024-01-15T05:23:37;3;3;
80413;PMS5003;69758;52.580;13.068;2024-01-15T05:26:03;2;2;
80413;PMS5003;69758;52.580;13.068;2024-01-15T05:28:28;3;3;
80413;PMS5003;69758;52.580;13.068;2024-01-15T05:30:54;2;2;
80413;PMS5003;69758;52.580;13.068;2024-01-15T05:33:19;2;2;
80413;PMS5003;69758;52.580;13.068;2024-01-15T05:35:45;1;1;
80413;PMS5003;69758;52.580;13.068;2024-01-15T05:38:10;5;3;
80413;PMS5003;69758;52.580;13.068;2024-01-15T05:40:36;1;1;
80413;PMS5003;69758;52.580;13.068;2024-01-15T05:43:01;5;2;
80413;PMS5003;69758;52.580;13.068;2024-01-15T05:45:27;2;2;
80413;PMS5003;69758;52.580;13.068;2024-01-15T05:47:52;1;1;
80413;PMS5003;69758;52.580;13.068;2024-01-15T05:50:18;2;2;
80413;PMS5003;69758;52.580;13.068;2024-01-15T05:52:43;3;3;
80413;PMS5003;69758;52.580;13.068;2024-01-15T05:55:09;3;3;
80413;PMS5003;69758;52.580;13.068;2024-01-15T05:57:34;2;2;
80413;PMS5003;69758;52.580;13.068;2024-01-15T06:00:00;1;1;
80413;PMS5003;69758;52.580;13.068;2024-01-15T06:02:25;2;2;
80413;PMS5003;69758;52.580;13.068;2024-01-15T06:04:51;1;1;
80413;PMS5003;69758;52.580;13.068;2024-01-15T06:07:16;2;2;
80413;PMS5003;69758;52.580;13.068;2024-01-15T06:09:42;2;2;
80413;PMS5003;69758;52.580;13.068;2024-01-15T06:12:08;3;3;
80413;PMS5003;69758;52.580;13.068;2024-01-15T06:14:33;1;1;
80413;PMS5003;69758;52.580;13.068;2024-01-15T06:16:59;1;1;
80413;PMS5003;69758;52.580;13.068;2024-01-15T06:19:24;3;3;
80413;PMS5003;69758;52.580;13.068;2024-01-15T06:21:50;8;7;
80413;PMS5003;69758;52.580;13.068;2024-01-15T06:24:15;1;1;
80413;PMS5003;69758;52.580;13.068;2024-01-15T06:26:41;1;1;
80413;PMS5003;69758;52.580;13.068;2024-01-15T06:29:06;2;2;
80413;PMS5003;69758;52.580;13.068;2024-01-15T06:31:32;2;1;
80413;PMS5003;69758;52.580;13.068;2024-01-15T06:33:57;2;1;
80413;PMS5003;69758;52.580;13.068;2024-01-15T06:36:23;3;2;
80413;PMS5003;69758;52.580;13.068;2024-01-15T06:38:48;7;2;
80413;PMS5003;69758;52.580;13.068;2024-01-15T06:41:14;2;2;
80413;PMS5003;69758;52.580;13.068;2024-01-15T06:43:39;3;3;
80413;PMS5003;69758;52.580;13.068;2024-01-15T06:46:05;1;1;
80413;PMS5003;69758;52.580;13.068;2024-01-15T06:48:31;2;2;
80413;PMS5003;69758;52.580;13.068;2024-01-15T06:50:56;1;0;
80413;PMS5003;69758;52.580;13.068;2024-01-15T06:53:21;1;1;
80413;PMS5003;69758;52.580;13.068;2024-01-15T06:55:47;2;2;
80413;PMS5003;69758;52.580;13.068;2024-01-15T06:58:12;1;1;
80413;PMS5003;69758;52.580;13.068;2024-01-15T07:00:38;0;0;
80413;PMS5003;69758;52.580;13.068;2024-01-15T07:03:04;1;1;
80413;PMS5003;69758;52.580;13.068;2024-01-15T07:05:29;1;1;
80413;PMS5003;69758;52.580;13.068;2024-01-15T07:07:54;1;1;
80413;PMS5003;69758;52.580;13.068;2024-01-15T07:10:20;2;1;
80413;PMS5003;69758;52.580;13.068;2024-01-15T07:12:45;2;2;
80413;PMS5003;69758;52.580;13.068;2024-01-15T07:15:11;2;1;
80413;PMS5003;69758;52.580;13.068;2024-01-15T07:17:37;0;0;
80413;PMS5003;69758;52.580;13.068;2024-01-15T07:20:02;1;0;
80413;PMS5003;69758;52.580;13.068;2024-01-15T07:22:27;0;0;
80413;PMS5003;69758;52.580;13.068;2024-01-15T07:24:53;2;2;
80413;PMS5003;69758;52.580;13.068;2024-01-15T07:27:19;5;2;
80413;PMS5003;69758;52.580;13.068;2024-01-15T07:29:44;2;1;
80413;PMS5003;69758;52.580;13.068;2024-01-15T07:32:10;3;3;
80413;PMS5003;69758;52.580;13.068;2024-01-15T07:34:35;3;2;
80413;PMS5003;69758;52.580;13.068;2024-01-15T07:37:01;2;2;
80413;PMS5003;69758;52.580;13.068;2024-01-15T07:39:26;1;1;
80413;PMS5003;69758;52.580;13.068;2024-01-15T07:41:52;1;1;
80413;PMS5003;69758;52.580;13.068;2024-01-15T07:44:17;1;1;
80413;PMS5003;69758;52.580;13.068;2024-01-15T07:46:43;0;0;
80413;PMS5003;69758;52.580;13.068;2024-01-15T07:49:08;2;2;
80413;PMS5003;69758;52.580;13.068;2024-01-15T07:51:34;2;2;
80413;PMS5003;69758;52.580;13.068;2024-01-15T07:53:59;1;1;
80413;PMS5003;69758;52.580;13.068;2024-01-15T07:56:25;2;1;
80413;PMS5003;69758;52.580;13.068;2024-01-15T07:58:50;1;1;
80413;PMS5003;69758;52.580;13.068;2024-01-15T08:01:16;1;1;
80413;PMS5003;69758;52.580;13.068;2024-01-15T08:03:41;1;1;
80413;PMS5003;69758;52.580;13.068;2024-01-15T08:06:07;2;1;
80413;PMS5003;69758;52.580;13.068;2024-01-15T08:08:32;3;2;
80413;PMS5003;69758;52.580;13.068;2024-01-15T08:10:58;2;1;
80413;PMS5003;69758;52.580;13.068;2024-01-15T08:13:26;0;0;
80413;PMS5003;69758;52.580;13.068;2024-01-15T08:15:49;2;2;
80413;PMS5003;69758;52.580;13.068;2024-01-15T08:18:14;1;1;
80413;PMS5003;69758;52.580;13.068;2024-01-15T08:20:40;1;1;
80413;PMS5003;69758;52.580;13.068;2024-01-15T08:23:06;1;0;
80413;PMS5003;69758;52.580;13.068;2024-01-15T08:25:31;0;0;
80413;PMS5003;69758;52.580;13.068;2024-01-15T08:27:56;2;2;
80413;PMS5003;69758;52.580;13.068;2024-01-15T08:30:22;1;1;
80413;PMS5003;69758;52.580;13.068;2024-01-15T08:32:47;0;0;
80413;PMS5003;69758;52.580;13.068;2024-01-15T08:35:13;2;1;
80413;PMS5003;69758;52.580;13.068;2024-01-15T08:37:38;1;1;
80413;PMS5003;69758;52.580;13.068;2024-01-15T08:40:04;1;1;
80413;PMS5003;69758;52.580;13.068;2024-01-15T08:42:29;1;1;
80413;PMS5003;69758;52.580;13.068;2024-01-15T08:44:55;0;0;
80413;PMS5003;69758;52.580;13.068;2024-01-15T08:47:20;2;2;
80413;PMS5003;69758;52.580;13.068;2024-01-15T08:49:46;1;1;
80413;PMS5003;69758;52.580;13.068;2024-01-15T08:52:11;2;2;
80413;PMS5003;69758;52.580;13.068;2024-01-15T08:54:37;2;1;
80413;PMS5003;69758;52.580;13.068;2024-01-15T08:57:02;2;2;
80413;PMS5003;69758;52.580;13.068;2024-01-15T08:59:28;5;3;
80413;PMS5003;69758;52.580;13.068;2024-01-15T09:01:53;2;2;
80413;PMS5003;69758;52.580;13.068;2024-01-15T09:04:19;2;2;
80413;PMS5003;69758;52.580;13.068;2024-01-15T09:06:44;1;1;
80413;PMS5003;69758;52.580;13.068;2024-01-15T09:09:10;2;2;
80413;PMS5003;69758;52.580;13.068;2024-01-15T09:11:35;2;2;
80413;PMS5003;69758;52.580;13.068;2024-01-15T09:14:01;2;1;
80413;PMS5003;69758;52.580;13.068;2024-01-15T09:16:26;1;1;
80413;PMS5003;69758;52.580;13.068;2024-01-15T09:18:52;1;1;
80413;PMS5003;69758;52.580;13.068;2024-01-15T09:21:17;3;2;
80413;PMS5003;69758;52.580;13.068;2024-01-15T09:23:43;2;2;
80413;PMS5003;69758;52.580;13.068;2024-01-15T09:26:08;3;3;
80413;PMS5003;69758;52.580;13.068;2024-01-15T09:28:33;2;1;
80413;PMS5003;69758;52.580;13.068;2024-01-15T09:30:59;1;1;
80413;PMS5003;69758;52.580;13.068;2024-01-15T09:33:24;2;2;
80413;PMS5003;69758;52.580;13.068;2024-01-15T09:35:50;1;1;
80413;PMS5003;69758;52.580;13.068;2024-01-15T09:38:15;3;2;
80413;PMS5003;69758;52.580;13.068;2024-01-15T09:40:42;1;1;
80413;PMS5003;69758;52.580;13.068;2024-01-15T09:43:06;1;1;
80413;PMS5003;69758;52.580;13.068;2024-01-15T09:45:32;2;2;
80413;PMS5003;69758;52.580;13.068;2024-01-15T09:47:57;2;2;
80413;PMS5003;69758;52.580;13.068;2024-01-15T09:50:22;3;2;
80413;PMS5003;69758;52.580;13.068;2024-01-15T09:52:48;1;0;
80413;PMS5003;69758;52.580;13.068;2024-01-15T09:55:13;1;1;
80413;PMS5003;69758;52.580;13.068;2024-01-15T09:57:39;1;1;
80413;PMS5003;69758;52.580;13.068;2024-01-15T10:00:05;1;1;
80413;PMS5003;69758;52.580;13.068;2024-01-15T10:02:30;2;2;
80413;PMS5003;69758;52.580;13.068;2024-01-15T10:04:55;0;0;
80413;PMS5003;69758;52.580;13.068;2024-01-15T10:07:21;1;1;
80413;PMS5003;69758;52.580;13.068;2024-01-15T10:09:46;1;1;
80413;PMS5003;69758;52.580;13.068;2024-01-15T10:12:12;0;0;
80413;PMS5003;69758;52.580;13.068;2024-01-15T10:14:38;0;0;
80413;PMS5003;69758;52.580;13.068;2024-01-15T10:19:30;0;0;
80413;PMS5003;69758;52.580;13.068;2024-01-15T10:21:54;0;0;
80413;PMS5003;69758;52.580;13.068;2024-01-15T10:24:20;2;2;
80413;PMS5003;69758;52.580;13.068;2024-01-15T10:26:45;1;1;
80413;PMS5003;69758;52.580;13.068;2024-01-15T10:29:10;2;2;
80413;PMS5003;69758;52.580;13.068;2024-01-15T10:31:36;28;24;
80413;PMS5003;69758;52.580;13.068;2024-01-15T10:36:27;2;1;
80413;PMS5003;69758;52.580;13.068;2024-01-15T10:38:53;7;5;
80413;PMS5003;69758;52.580;13.068;2024-01-15T10:41:19;1;1;
80413;PMS5003;69758;52.580;13.068;2024-01-15T10:43:44;2;2;
80413;PMS5003;69758;52.580;13.068;2024-01-15T10:46:10;2;1;
80413;PMS5003;69758;52.580;13.068;2024-01-15T10:48:35;2;1;
80413;PMS5003;69758;52.580;13.068;2024-01-15T10:51:01;2;2;
80413;PMS5003;69758;52.580;13.068;2024-01-15T10:53:26;1;1;
80413;PMS5003;69758;52.580;13.068;2024-01-15T10:55:52;0;0;
80413;PMS5003;69758;52.580;13.068;2024-01-15T10:58:17;0;0;
80413;PMS5003;69758;52.580;13.068;2024-01-15T11:00:43;0;0;
80413;PMS5003;69758;52.580;13.068;2024-01-15T11:03:08;1;0;
80413;PMS5003;69758;52.580;13.068;2024-01-15T11:05:34;0;0;
80413;PMS5003;69758;52.580;13.068;2024-01-15T11:07:59;0;0;
80413;PMS5003;69758;52.580;13.068;2024-01-15T11:12:50;0;0;
80413;PMS5003;69758;52.580;13.068;2024-01-15T11:15:17;1;0;
80413;PMS5003;69758;52.580;13.068;2024-01-15T11:20:06;0;0;
80413;PMS5003;69758;52.580;13.068;2024-01-15T11:24:57;1;1;
80413;PMS5003;69758;52.580;13.068;2024-01-15T11:29:49;2;2;
80413;PMS5003;69758;52.580;13.068;2024-01-15T11:32:14;0;0;
80413;PMS5003;69758;52.580;13.068;2024-01-15T11:37:05;3;2;
80413;PMS5003;69758;52.580;13.068;2024-01-15T11:39:39;2;1;
80413;PMS5003;69758;52.580;13.068;2024-01-15T11:41:56;1;1;
80413;PMS5003;69758;52.580;13.068;2024-01-15T11:44:22;1;1;
80413;PMS5003;69758;52.580;13.068;2024-01-15T11:46:49;1;1;
80413;PMS5003;69758;52.580;13.068;2024-01-15T11:49:13;1;1;
80413;PMS5003;69758;52.580;13.068;2024-01-15T11:51:38;1;1;
80413;PMS5003;69758;52.580;13.068;2024-01-15T11:54:04;1;1;
80413;PMS5003;69758;52.580;13.068;2024-01-15T11:56:29;1;1;
80413;PMS5003;69758;52.580;13.068;2024-01-15T11:58:55;1;1;
80413;PMS5003;69758;52.580;13.068;2024-01-15T12:01:20;2;1;
80413;PMS5003;69758;52.580;13.068;2024-01-15T12:03:47;1;1;
80413;PMS5003;69758;52.580;13.068;2024-01-15T12:06:11;1;1;
80413;PMS5003;69758;52.580;13.068;2024-01-15T12:08:37;1;1;
80413;PMS5003;69758;52.580;13.068;2024-01-15T12:11:04;0;0;
80413;PMS5003;69758;52.580;13.068;2024-01-15T12:13:28;2;2;
80413;PMS5003;69758;52.580;13.068;2024-01-15T12:15:54;1;0;
80413;PMS5003;69758;52.580;13.068;2024-01-15T12:18:19;0;0;
80413;PMS5003;69758;52.580;13.068;2024-01-15T12:20:45;1;1;
80413;PMS5003;69758;52.580;13.068;2024-01-15T12:23:10;1;1;
80413;PMS5003;69758;52.580;13.068;2024-01-15T12:25:35;1;1;
80413;PMS5003;69758;52.580;13.068;2024-01-15T12:28:01;0;0;
80413;PMS5003;69758;52.580;13.068;2024-01-15T12:30:26;0;0;
80413;PMS5003;69758;52.580;13.068;2024-01-15T12:32:52;1;1;
80413;PMS5003;69758;52.580;13.068;2024-01-15T12:35:17;1;1;
80413;PMS5003;69758;52.580;13.068;2024-01-15T12:37:48;2;2;
80413;PMS5003;69758;52.580;13.068;2024-01-15T12:40:09;0;0;
80413;PMS5003;69758;52.580;13.068;2024-01-15T12:42:34;1;1;
80413;PMS5003;69758;52.580;13.068;2024-01-15T12:44:59;1;1;
80413;PMS5003;69758;52.580;13.068;2024-01-15T12:47:25;0;0;
80413;PMS5003;69758;52.580;13.068;2024-01-15T12:49:51;2;1;
80413;PMS5003;69758;52.580;13.068;2024-01-15T12:52:18;1;1;
80413;PMS5003;69758;52.580;13.068;2024-01-15T12:54:41;1;1;
80413;PMS5003;69758;52.580;13.068;2024-01-15T12:57:07;1;1;
80413;PMS5003;69758;52.580;13.068;2024-01-15T12:59:32;2;2;
80413;PMS5003;69758;52.580;13.068;2024-01-15T13:01:58;0;0;
80413;PMS5003;69758;52.580;13.068;2024-01-15T13:04:23;1;1;
80413;PMS5003;69758;52.580;13.068;2024-01-15T13:06:49;2;2;
80413;PMS5003;69758;52.580;13.068;2024-01-15T13:09:14;2;2;
80413;PMS5003;69758;52.580;13.068;2024-01-15T13:11:40;1;1;
80413;PMS5003;69758;52.580;13.068;2024-01-15T13:14:05;1;1;
80413;PMS5003;69758;52.580;13.068;2024-01-15T13:16:31;10;8;
80413;PMS5003;69758;52.580;13.068;2024-01-15T13:18:56;1;1;
80413;PMS5003;69758;52.580;13.068;2024-01-15T13:21:22;2;1;
80413;PMS5003;69758;52.580;13.068;2024-01-15T13:23:47;1;1;
80413;PMS5003;69758;52.580;13.068;2024-01-15T13:26:12;1;1;
80413;PMS5003;69758;52.580;13.068;2024-01-15T13:28:38;1;1;
80413;PMS5003;69758;52.580;13.068;2024-01-15T13:31:03;1;1;
80413;PMS5003;69758;52.580;13.068;2024-01-15T13:33:29;2;1;
80413;PMS5003;69758;52.580;13.068;2024-01-15T13:35:54;1;1;
80413;PMS5003;69758;52.580;13.068;2024-01-15T13:38:20;1;1;
80413;PMS5003;69758;52.580;13.068;2024-01-15T13:40:45;2;1;
80413;PMS5003;69758;52.580;13.068;2024-01-15T13:43:11;1;1;
80413;PMS5003;69758;52.580;13.068;2024-01-15T13:45:36;2;1;
80413;PMS5003;69758;52.580;13.068;2024-01-15T13:48:02;2;2;
80413;PMS5003;69758;52.580;13.068;2024-01-15T13:50:28;1;1;
80413;PMS5003;69758;52.580;13.068;2024-01-15T13:52:53;2;2;
80413;PMS5003;69758;52.580;13.068;2024-01-15T13:55:18;1;1;
80413;PMS5003;69758;52.580;13.068;2024-01-15T13:57:44;8;7;
80413;PMS5003;69758;52.580;13.068;2024-01-15T14:00:10;1;1;
80413;PMS5003;69758;52.580;13.068;2024-01-15T14:02:35;1;1;
80413;PMS5003;69758;52.580;13.068;2024-01-15T14:05:01;2;2;
80413;PMS5003;69758;52.580;13.068;2024-01-15T14:07:26;6;6;
80413;PMS5003;69758;52.580;13.068;2024-01-15T14:09:52;6;3;
80413;PMS5003;69758;52.580;13.068;2024-01-15T14:12:17;1;1;
80413;PMS5003;69758;52.580;13.068;2024-01-15T14:14:43;2;2;
80413;PMS5003;69758;52.580;13.068;2024-01-15T14:17:08;1;1;
80413;PMS5003;69758;52.580;13.068;2024-01-15T14:19:34;2;2;
80413;PMS5003;69758;52.580;13.068;2024-01-15T14:21:59;1;1;
80413;PMS5003;69758;52.580;13.068;2024-01-15T14:24:25;3;2;
80413;PMS5003;69758;52.580;13.068;2024-01-15T14:26:50;1;1;
80413;PMS5003;69758;52.580;13.068;2024-01-15T14:29:16;1;1;
80413;PMS5003;69758;52.580;13.068;2024-01-15T14:31:41;1;0;
80413;PMS5003;69758;52.580;13.068;2024-01-15T14:34:07;1;1;
80413;PMS5003;69758;52.580;13.068;2024-01-15T14:36:33;2;2;
80413;PMS5003;69758;52.580;13.068;2024-01-15T14:38:58;2;2;
80413;PMS5003;69758;52.580;13.068;2024-01-15T14:41:23;2;1;
80413;PMS5003;69758;52.580;13.068;2024-01-15T14:43:49;1;1;
80413;PMS5003;69758;52.580;13.068;2024-01-15T14:46:14;1;1;
80413;PMS5003;69758;52.580;13.068;2024-01-15T14:48:40;3;3;
80413;PMS5003;69758;52.580;13.068;2024-01-15T14:51:05;2;2;
80413;PMS5003;69758;52.580;13.068;2024-01-15T14:53:31;2;2;
80413;PMS5003;69758;52.580;13.068;2024-01-15T14:55:56;1;0;
80413;PMS5003;69758;52.580;13.068;2024-01-15T14:58:22;3;2;
80413;PMS5003;69758;52.580;13.068;2024-01-15T15:00:47;1;1;
80413;PMS5003;69758;52.580;13.068;2024-01-15T15:03:13;6;6;
80413;PMS5003;69758;52.580;13.068;2024-01-15T15:05:38;1;1;
80413;PMS5003;69758;52.580;13.068;2024-01-15T15:08:04;3;2;
80413;PMS5003;69758;52.580;13.068;2024-01-15T15:10:29;5;3;
80413;PMS5003;69758;52.580;13.068;2024-01-15T15:12:55;2;2;
80413;PMS5003;69758;52.580;13.068;2024-01-15T15:15:20;29;28;
80413;PMS5003;69758;52.580;13.068;2024-01-15T15:17:46;7;7;
80413;PMS5003;69758;52.580;13.068;2024-01-15T15:20:11;2;2;
80413;PMS5003;69758;52.580;13.068;2024-01-15T15:22:37;6;5;
80413;PMS5003;69758;52.580;13.068;2024-01-15T15:25:03;3;2;
80413;PMS5003;69758;52.580;13.068;2024-01-15T15:27:27;10;7;
80413;PMS5003;69758;52.580;13.068;2024-01-15T15:29:53;2;2;
80413;PMS5003;69758;52.580;13.068;2024-01-15T15:32:18;3;3;
80413;PMS5003;69758;52.580;13.068;2024-01-15T15:34:44;2;2;
80413;PMS5003;69758;52.580;13.068;2024-01-15T15:37:09;5;5;
80413;PMS5003;69758;52.580;13.068;2024-01-15T15:39:35;3;2;
80413;PMS5003;69758;52.580;13.068;2024-01-15T15:42:00;3;3;
80413;PMS5003;69758;52.580;13.068;2024-01-15T15:44:26;6;3;
80413;PMS5003;69758;52.580;13.068;2024-01-15T15:46:51;5;3;
80413;PMS5003;69758;52.580;13.068;2024-01-15T15:49:17;2;2;
80413;PMS5003;69758;52.580;13.068;2024-01-15T15:51:42;2;2;
80413;PMS5003;69758;52.580;13.068;2024-01-15T15:54:08;2;2;
80413;PMS5003;69758;52.580;13.068;2024-01-15T15:56:33;3;3;
80413;PMS5003;69758;52.580;13.068;2024-01-15T15:58:59;3;2;
80413;PMS5003;69758;52.580;13.068;2024-01-15T16:01:24;49;41;
80413;PMS5003;69758;52.580;13.068;2024-01-15T16:03:50;7;7;
80413;PMS5003;69758;52.580;13.068;2024-01-15T16:06:15;3;2;
80413;PMS5003;69758;52.580;13.068;2024-01-15T16:08:41;5;5;
80413;PMS5003;69758;52.580;13.068;2024-01-15T16:11:06;2;2;
80413;PMS5003;69758;52.580;13.068;2024-01-15T16:13:32;12;11;
80413;PMS5003;69758;52.580;13.068;2024-01-15T16:15:57;7;7;
80413;PMS5003;69758;52.580;13.068;2024-01-15T16:18:23;5;5;
80413;PMS5003;69758;52.580;13.068;2024-01-15T16:20:48;6;6;
80413;PMS5003;69758;52.580;13.068;2024-01-15T16:23:14;6;5;
80413;PMS5003;69758;52.580;13.068;2024-01-15T16:25:39;5;5;
80413;PMS5003;69758;52.580;13.068;2024-01-15T16:28:05;5;5;
80413;PMS5003;69758;52.580;13.068;2024-01-15T16:30:30;3;3;